Latest Coastal Weather Observations for Cape Nelson

IDV60701

Issued at 12:35 am EST Tuesday 29 July 2014 (issued every 10 minutes, with the page automatically refreshed every 10 minutes)

About coastal observations | Map of coastal stations | Coastal observations for VIC | Marine services | Other Formats
Station Details ID: 090184 Name: CAPE NELSON LIGHTHOUSE Lat: -38.43 Lon: 141.54 Height: 45.4 m
Data from the previous 72 hours. | See also: Recent months at Cape Nelson
Date/Time
EST
Temp

°C
Wind Pressure Rain
since 9am
mm
Weather Cloud Vis
km
Sea
Height
m
Swell
Dir
 
Speed
knots
Gust
knots
hPa Trend Height
m
Period
s
Dir
29/12:30am 12.6 NNW 23 33 1006.5 - 10.8 - - - - - - -
29/12:00am 12.4 NW 22 35 1006.9 - 10.8 - - - - - - -
 
Date/Time
EST
Temp

°C
Wind Pressure Rain
since 9am
mm
Weather Cloud Vis
km
Sea
Height
m
Swell
Dir
 
Speed
knots
Gust
knots
hPa Trend Height
m
Period
s
Dir
28/11:30pm 12.3 NNW 21 32 1007.5 - 10.8 - - - - - - -
28/11:11pm 12.1 NNW 21 32 1007.7 - 10.8 - - - - - - -
28/11:00pm 12.1 NNW 22 31 1007.8 - 10.8 - - - - - - -
28/10:34pm 12.1 NNW 20 30 1008.3 - 10.8 - - - - - - -
28/10:30pm 12.1 NNW 20 28 1008.4 - 10.8 - - - - - - -
28/10:06pm 12.0 NNW 19 32 1008.7 - 10.8 - - - - - - -
28/10:00pm 12.1 NNW 20 28 1008.8 - 10.6 - - - - - - -
28/09:30pm 12.2 NNW 16 27 1008.9 - 5.6 - - - - - - -
28/09:25pm 12.2 NNW 19 29 1009.1 - 4.2 - - - - - - -
28/09:00pm 12.4 NNW 19 27 1009.1 - 1.2 Recent precip. - - - - - -
28/08:39pm 12.5 NNW 19 29 1009.0 - 0.8 - - - - - - -
28/08:30pm 12.7 NNW 17 26 1009.2 - 0.4 - - - - - - -
28/08:24pm 12.8 NNW 19 29 1009.2 - 0.4 - - - - - - -
28/08:00pm 13.1 NNW 19 28 1008.9 - 0.2 - - - - - - -
28/07:30pm 13.6 NNW 20 30 1008.8 - 0.2 - - - - - - -
28/07:01pm 13.8 NNW 18 28 1009.1 - 0.2 - - - - - - -
28/07:00pm 13.9 NNW 19 28 1009.1 - 0.2 - - - - - - -
28/06:30pm 13.7 NW 18 23 1009.2 - 0.2 - - - - - - -
28/06:00pm 14.2 NW 20 27 1009.5 - 0.2 - - - - - - -
28/05:35pm 14.3 NW 19 29 1009.3 - 0.2 - - - - - - -
28/05:30pm 14.3 NW 20 29 1009.3 - 0.2 - - - - - - -
28/05:05pm 14.7 NW 20 30 1009.1 - 0.2 - - - - - - -
28/05:00pm 14.8 NW 21 28 1009.1 - 0.2 - - - - - - -
28/04:43pm 14.9 NW 22 33 1009.1 - 0.2 - - - - - - -
28/04:30pm 14.9 NW 21 30 1009.4 - 0.2 - - - - - - -
28/04:18pm 15.2 NW 21 31 1009.4 - 0.2 - - - - - - -
28/04:00pm 15.1 NW 21 30 1009.3 - 0.2 - - - - - - -
28/03:37pm 15.8 NW 23 33 1009.4 - 0.2 - - - - - - -
28/03:30pm 15.9 NW 23 31 1009.5 - 0.2 - - - - - - -
28/03:01pm 16.2 NW 22 33 1009.4 - 0.2 - - - - - - -
28/03:00pm 16.2 NW 22 31 1009.5 - 0.2 Recent precip. - - - - - -
28/02:30pm 16.5 NW 22 33 1009.7 - 0.2 - - - - - - -
28/02:26pm 16.5 NW 22 32 1009.8 - 0.2 - - - - - - -
28/02:00pm 16.6 NW 20 29 1010.2 - 0.0 - - - - - - -
28/01:30pm 15.7 NW 20 29 1010.5 - 0.0 - - - - - - -
28/01:00pm 15.7 NW 20 27 1010.9 - 0.0 - - - - - - -
28/12:30pm 16.1 NW 21 31 1011.2 - 0.0 - - - - - - -
28/12:23pm 16.2 NW 20 30 1011.4 - 0.0 - - - - - - -
28/12:00pm 15.9 NW 20 28 1011.6 - 0.0 - - - - - - -
28/11:41am 15.5 NW 19 29 1011.9 - 0.0 - - - - - - -
28/11:30am 15.2 NW 20 29 1012.1 - 0.0 - - - - - - -
28/11:04am 14.8 NW 19 29 1012.4 - 0.0 - - - - - - -
28/11:00am 14.9 NW 19 28 1012.4 - 0.0 - - - - - - -
28/10:59am 14.9 NW 19 29 1012.4 - 0.0 - - - - - - -
28/10:30am 14.4 NW 19 26 1012.5 - 0.0 - - - - - - -
28/10:00am 13.7 NW 19 27 1012.7 - 0.0 - - - - - - -
28/09:57am 13.7 NW 18 27 1012.7 - 0.0 - - - - - - -
28/09:30am 12.8 NNW 11 16 1012.7 - 0.0 - - - - - - -
28/09:00am 12.0 NNW 11 15 1012.8 - 0.0 - - - - - - -
28/08:30am 11.4 N 11 15 1012.7 - 0.0 - - - - - - -
28/08:00am 11.0 NNW 11 15 1012.8 - 0.0 - - - - - - -
28/07:30am 11.5 NNW 13 19 1012.7 - 0.0 - - - - - - -
28/07:00am 11.7 NNW 13 20 1012.8 - 0.0 - - - - - - -
28/06:30am 12.0 NW 17 22 1012.8 - 0.0 - - - - - - -
28/06:00am 12.1 NNW 16 23 1012.7 - 0.0 - - - - - - -
28/05:30am 12.2 NNW 17 25 1012.8 - 0.0 - - - - - - -
28/05:00am 12.2 NNW 15 21 1012.8 - 0.0 - - - - - - -
28/04:30am 12.2 NNW 13 20 1012.9 - 0.0 - - - - - - -
28/04:00am 11.8 NNW 11 16 1013.0 - 0.0 - - - - - - -
28/03:30am 12.1 N 12 21 1013.2 - 0.0 - - - - - - -
28/03:00am 11.9 N 10 14 1013.3 - 0.0 - - - - - - -
28/02:30am 12.7 NNW 13 20 1013.6 - 0.0 - - - - - - -
28/02:00am 12.6 NNW 14 21 1013.6 - 0.0 - - - - - - -
28/01:30am 12.2 N 11 15 1013.9 - 0.0 - - - - - - -
28/01:00am 12.4 N 13 22 1014.3 - 0.0 - - - - - - -
28/12:30am 12.6 NNW 14 20 1014.6 - 0.0 - - - - - - -
28/12:00am 12.9 NNW 17 23 1014.8 - 0.0 - - - - - - -
 
Date/Time
EST
Temp

°C
Wind Pressure Rain
since 9am
mm
Weather Cloud Vis
km
Sea
Height
m
Swell
Dir
 
Speed
knots
Gust
knots
hPa Trend Height
m
Period
s
Dir
27/11:33pm 13.1 NNW 16 26 1015.1 - 0.0 - - - - - - -
27/11:30pm 13.1 NNW 17 26 1015.1 - 0.0 - - - - - - -
27/11:00pm 12.3 NNW 13 20 1015.4 - 0.0 - - - - - - -
27/10:30pm 12.7 NNW 15 24 1015.4 - 0.0 - - - - - - -
27/10:18pm 12.8 NNW 15 25 1015.4 - 0.0 - - - - - - -
27/10:00pm 12.7 NNW 17 25 1015.5 - 0.0 - - - - - - -
27/09:41pm 12.9 NNW 17 30 1015.5 - 0.0 - - - - - - -
27/09:30pm 12.9 NNW 17 25 1015.8 - 0.0 - - - - - - -
27/09:00pm 12.8 NNW 16 28 1015.7 - 0.0 - - - - - - -
27/08:50pm 12.7 NNW 16 26 1015.5 - 0.0 - - - - - - -
27/08:30pm 12.4 N 15 22 1015.5 - 0.0 - - - - - - -
27/08:00pm 12.1 N 14 23 1015.7 - 0.0 - - - - - - -
27/07:30pm 12.2 N 14 22 1015.7 - 0.0 - - - - - - -
27/07:00pm 12.4 N 15 22 1015.9 - 0.0 - - - - - - -
27/06:30pm 12.6 N 13 17 1016.2 - 0.0 - - - - - - -
27/06:00pm 12.9 N 13 18 1016.1 - 0.0 - - - - - - -
27/05:30pm 13.6 N 14 21 1016.1 - 0.0 - - - - - - -
27/05:00pm 14.1 N 13 18 1016.0 - 0.0 - - - - - - -
27/04:30pm 14.8 NNW 14 20 1016.1 - 0.0 - - - - - - -
27/04:00pm 15.3 NNW 14 22 1016.2 - 0.0 - - - - - - -
27/03:38pm 15.7 NNW 15 25 1016.4 - 0.0 - - - - - - -
27/03:30pm 16.1 NNW 15 22 1016.5 - 0.0 - - - - - - -
27/03:00pm 15.9 NNW 16 22 1016.6 - 0.0 - - - - - - -
27/02:30pm 16.9 NNW 14 19 1016.8 - 0.0 - - - - - - -
27/02:00pm 16.3 NNW 14 21 1017.1 - 0.0 - - - - - - -
27/01:30pm 15.7 NNW 16 22 1017.4 - 0.0 - - - - - - -
27/01:00pm 15.3 NNW 17 23 1017.7 - 0.0 - - - - - - -
27/12:30pm 14.5 NNW 16 24 1018.2 - 0.0 - - - - - - -
27/12:01pm 14.7 NNW 18 28 1018.9 - 0.0 - - - - - - -
27/12:00pm 14.7 NNW 18 25 1019.0 - 0.0 - - - - - - -
27/11:30am 14.0 NNW 17 24 1019.6 - 0.0 - - - - - - -
27/11:00am 13.3 NNW 17 27 1020.3 - 0.0 - - - - - - -
27/10:57am 13.0 NNW 17 27 1020.2 - 0.0 - - - - - - -
27/10:30am 11.9 N 13 20 1020.4 - 0.0 - - - - - - -
27/10:02am 11.7 N 15 25 1020.4 - 0.0 - - - - - - -
27/10:00am 11.6 N 14 21 1020.4 - 0.0 - - - - - - -
27/09:46am 11.4 N 15 25 1020.6 - 0.0 - - - - - - -
27/09:30am 11.2 N 16 22 1020.2 - 0.0 - - - - - - -
27/09:00am 10.2 N 14 22 1020.9 - 0.0 - - - - - - -
27/08:32am 9.7 N 15 26 1020.8 - 0.0 - - - - - - -
27/08:30am 9.7 N 15 23 1020.9 - 0.0 - - - - - - -
27/08:00am 9.1 N 15 21 1021.0 - 0.0 - - - - - - -
27/07:30am 8.9 N 11 16 1021.2 - 0.0 - - - - - - -
27/07:00am 8.9 NNW 12 18 1021.7 - 0.0 - - - - - - -
27/06:30am 8.5 N 12 19 1021.7 - 0.0 - - - - - - -
27/06:00am 8.8 N 13 21 1021.9 - 0.0 - - - - - - -
27/05:30am 8.6 NNW 12 16 1022.0 - 0.0 - - - - - - -
27/05:00am 8.7 N 12 17 1022.2 - 0.0 - - - - - - -
27/04:30am 9.1 NNW 12 17 1022.4 - 0.0 - - - - - - -
27/04:00am 9.4 NNW 12 16 1022.8 - 0.0 - - - - - - -
27/03:30am 9.1 NNW 10 13 1022.9 - 0.0 - - - - - - -
27/03:00am 9.3 NNW 12 17 1023.1 - 0.0 - - - - - - -
27/02:30am 9.2 NNW 11 16 1023.1 - 0.0 - - - - - - -
27/02:00am 9.0 NNW 11 15 1023.4 - 0.0 - - - - - - -
27/01:30am 9.6 NNW 10 15 1023.4 - 0.0 - - - - - - -
27/01:00am 9.4 N 13 18 1023.6 - 0.0 - - - - - - -
27/12:30am 9.4 N 10 14 1023.7 - 0.0 - - - - - - -
27/12:00am 9.5 N 10 13 1024.2 - 0.0 - - - - - - -
 
Date/Time
EST
Temp

°C
Wind Pressure Rain
since 9am
mm
Weather Cloud Vis
km
Sea
Height
m
Swell
Dir
 
Speed
knots
Gust
knots
hPa Trend Height
m
Period
s
Dir
26/11:30pm 9.4 N 9 12 1024.2 - 0.0 - - - - - - -
26/11:00pm 9.3 N 9 12 1024.6 - 0.0 - - - - - - -
26/10:30pm 9.1 N 8 11 1024.7 - 0.0 - - - - - - -
26/10:00pm 9.0 N 8 9 1025.0 - 0.0 - - - - - - -
26/09:30pm 8.7 N 8 9 1024.9 - 0.0 - - - - - - -
26/09:00pm 7.9 N 6 7 1025.1 - 0.0 - - - - - - -
26/08:30pm 8.0 N 5 6 1025.0 - 0.0 - - - - - - -
26/08:00pm 8.2 N 6 7 1025.0 - 0.0 - - - - - - -
26/07:30pm 8.1 N 4 4 1024.9 - 0.0 - - - - - - -
26/07:00pm 9.0 N 4 5 1024.9 - 0.0 - - - - - - -
26/06:30pm 10.4 NW 5 7 1024.8 - 0.0 - - - - - - -
26/06:00pm 11.5 NW 6 7 1024.8 - 0.0 - - - - - - -
26/05:30pm 12.5 WNW 7 9 1024.6 - 0.0 - - - - - - -
26/05:00pm 13.0 W 8 11 1024.6 - 0.0 - - - - - - -
26/04:30pm 13.2 W 7 10 1024.4 - 0.0 - - - - - - -
26/04:00pm 13.1 W 9 13 1024.2 - 0.0 - - - - - - -
26/03:30pm 13.0 W 11 16 1023.9 - 0.0 - - - - - - -
26/03:00pm 13.1 W 13 18 1024.0 - 0.0 - - - - - - -
26/02:30pm 13.0 W 10 14 1023.7 - 0.0 - - - - - - -
26/02:00pm 13.3 W 13 18 1023.6 - 0.0 - - - - - - -
26/01:30pm 13.1 W 12 18 1023.6 - 0.0 - - - - - - -
26/01:00pm 13.4 W 14 18 1024.0 - 0.0 - - - - - - -
26/12:30pm 13.2 W 12 18 1024.1 - 0.0 - - - - - - -
26/12:00pm 13.2 W 13 18 1024.6 - 0.0 - - - - - - -
26/11:30am 12.9 W 16 22 1024.6 - 0.0 - - - - - - -
26/11:00am 13.0 NNW 11 15 1024.3 - 0.0 - - - - - - -
26/10:30am 12.8 NNE 9 14 1024.2 - 0.0 - - - - - - -
26/10:00am 12.7 W 14 20 1024.2 - 0.0 - - - - - - -
26/09:30am 12.7 N 9 17 1023.7 - 0.0 - - - - - - -
26/09:00am 12.7 NW 10 15 1023.6 - 0.8 - - - - - - -
26/08:30am 12.7 W 13 18 1023.2 - 0.8 - - - - - - -
26/08:00am 12.5 NW 11 18 1022.9 - 0.8 - - - - - - -
26/07:30am 12.6 WNW 13 20 1022.5 - 0.8 - - - - - - -
26/07:00am 12.9 W 17 23 1022.3 - 0.8 - - - - - - -
26/06:30am 12.9 WNW 11 18 1021.6 - 0.8 - - - - - - -
26/06:00am 13.0 W 13 19 1021.4 - 0.8 - - - - - - -
26/05:30am 13.1 W 15 23 1021.1 - 0.8 - - - - - - -
26/05:00am 13.2 W 19 24 1021.0 - 0.8 - - - - - - -
26/04:30am 12.9 WNW 13 19 1020.4 - 0.8 - - - - - - -
26/04:00am 13.0 W 13 18 1020.4 - 0.8 - - - - - - -
26/03:30am 13.3 W 17 23 1020.2 - 0.8 - - - - - - -
26/03:00am 13.1 W 15 20 1020.2 - 0.8 - - - - - - -
26/02:30am 12.9 WNW 14 23 1020.0 - 0.8 - - - - - - -
26/02:00am 12.9 NNW 11 17 1019.6 - 0.8 - - - - - - -
26/01:30am 13.0 WNW 13 19 1019.6 - 0.8 - - - - - - -
26/01:00am 13.0 W 13 19 1019.7 - 0.8 - - - - - - -

Other Formats:

Comma delimited format used in spreadsheet applications
http://www.bom.gov.au/fwo/IDV60701/IDV60701.94826.axf

JavaScript Object Notation format (JSON) in row-major order
http://www.bom.gov.au/fwo/IDV60701/IDV60701.94826.json